sensor_id;sensor_type;location;lat;lon;timestamp;P1;durP1;ratioP1;P2;durP2;ratioP2
55150;SDS011;41041;43.162;20.538;2023-07-20T00:02:21;9.18;;;2.85;;
55150;SDS011;41041;43.162;20.538;2023-07-20T00:04:48;11.98;;;2.95;;
55150;SDS011;41041;43.162;20.538;2023-07-20T00:10:17;9.95;;;3.08;;
55150;SDS011;41041;43.162;20.538;2023-07-20T00:15:48;9.98;;;2.50;;
55150;SDS011;41041;43.162;20.538;2023-07-20T00:21:22;10.00;;;2.80;;
55150;SDS011;41041;43.162;20.538;2023-07-20T00:43:00;7.22;;;2.55;;
55150;SDS011;41041;43.162;20.538;2023-07-20T00:48:56;8.27;;;2.33;;
55150;SDS011;41041;43.162;20.538;2023-07-20T00:51:22;6.63;;;2.50;;
55150;SDS011;41041;43.162;20.538;2023-07-20T00:53:48;8.93;;;2.80;;
55150;SDS011;41041;43.162;20.538;2023-07-20T00:56:15;11.60;;;2.83;;
55150;SDS011;41041;43.162;20.538;2023-07-20T00:58:41;10.55;;;3.03;;
55150;SDS011;41041;43.162;20.538;2023-07-20T01:01:07;9.75;;;3.72;;
55150;SDS011;41041;43.162;20.538;2023-07-20T01:03:34;11.30;;;2.55;;
55150;SDS011;41041;43.162;20.538;2023-07-20T01:08:54;12.93;;;2.83;;
55150;SDS011;41041;43.162;20.538;2023-07-20T01:14:30;8.93;;;2.92;;
55150;SDS011;41041;43.162;20.538;2023-07-20T01:16:58;9.02;;;2.65;;
55150;SDS011;41041;43.162;20.538;2023-07-20T01:19:23;11.63;;;2.65;;
55150;SDS011;41041;43.162;20.538;2023-07-20T01:27:22;5.95;;;2.67;;
55150;SDS011;41041;43.162;20.538;2023-07-20T01:30:39;10.32;;;3.13;;
55150;SDS011;41041;43.162;20.538;2023-07-20T01:37:08;8.48;;;2.60;;
55150;SDS011;41041;43.162;20.538;2023-07-20T01:39:35;8.85;;;2.80;;
55150;SDS011;41041;43.162;20.538;2023-07-20T01:42:03;7.90;;;2.55;;
55150;SDS011;41041;43.162;20.538;2023-07-20T01:44:32;13.73;;;3.10;;
55150;SDS011;41041;43.162;20.538;2023-07-20T01:56:38;7.40;;;2.50;;
55150;SDS011;41041;43.162;20.538;2023-07-20T01:59:04;9.73;;;2.70;;
55150;SDS011;41041;43.162;20.538;2023-07-20T02:04:52;8.32;;;2.80;;
55150;SDS011;41041;43.162;20.538;2023-07-20T02:07:18;10.15;;;2.90;;
55150;SDS011;41041;43.162;20.538;2023-07-20T02:09:44;6.53;;;2.80;;
55150;SDS011;41041;43.162;20.538;2023-07-20T02:12:21;8.75;;;2.97;;
55150;SDS011;41041;43.162;20.538;2023-07-20T02:17:58;8.88;;;2.90;;
55150;SDS011;41041;43.162;20.538;2023-07-20T02:20:24;7.78;;;2.58;;
55150;SDS011;41041;43.162;20.538;2023-07-20T02:22:50;8.05;;;2.85;;
55150;SDS011;41041;43.162;20.538;2023-07-20T02:25:16;8.00;;;2.80;;
55150;SDS011;41041;43.162;20.538;2023-07-20T02:27:43;10.98;;;2.72;;
55150;SDS011;41041;43.162;20.538;2023-07-20T02:30:09;15.48;;;2.75;;
55150;SDS011;41041;43.162;20.538;2023-07-20T02:32:35;5.93;;;2.55;;
55150;SDS011;41041;43.162;20.538;2023-07-20T02:35:02;10.95;;;3.05;;
55150;SDS011;41041;43.162;20.538;2023-07-20T02:37:28;9.27;;;3.05;;
55150;SDS011;41041;43.162;20.538;2023-07-20T02:39:54;11.50;;;3.08;;
55150;SDS011;41041;43.162;20.538;2023-07-20T02:42:21;10.80;;;3.10;;
55150;SDS011;41041;43.162;20.538;2023-07-20T02:44:49;6.00;;;2.63;;
55150;SDS011;41041;43.162;20.538;2023-07-20T02:47:15;7.93;;;2.45;;
55150;SDS011;41041;43.162;20.538;2023-07-20T02:49:41;6.68;;;2.70;;
55150;SDS011;41041;43.162;20.538;2023-07-20T02:52:07;10.25;;;2.70;;
55150;SDS011;41041;43.162;20.538;2023-07-20T02:54:33;15.77;;;3.00;;
55150;SDS011;41041;43.162;20.538;2023-07-20T02:57:00;8.88;;;2.92;;
55150;SDS011;41041;43.162;20.538;2023-07-20T02:59:26;7.70;;;2.60;;
55150;SDS011;41041;43.162;20.538;2023-07-20T03:01:52;9.25;;;3.05;;
55150;SDS011;41041;43.162;20.538;2023-07-20T03:04:19;7.72;;;2.90;;
55150;SDS011;41041;43.162;20.538;2023-07-20T03:06:45;10.13;;;3.10;;
55150;SDS011;41041;43.162;20.538;2023-07-20T03:09:11;8.32;;;2.60;;
55150;SDS011;41041;43.162;20.538;2023-07-20T03:11:45;8.82;;;3.00;;
55150;SDS011;41041;43.162;20.538;2023-07-20T03:14:11;8.98;;;3.40;;
55150;SDS011;41041;43.162;20.538;2023-07-20T03:16:37;12.13;;;2.97;;
55150;SDS011;41041;43.162;20.538;2023-07-20T03:19:04;8.82;;;2.92;;
55150;SDS011;41041;43.162;20.538;2023-07-20T03:24:34;9.63;;;3.42;;
55150;SDS011;41041;43.162;20.538;2023-07-20T03:27:00;9.88;;;3.28;;
55150;SDS011;41041;43.162;20.538;2023-07-20T03:29:26;10.75;;;3.50;;
55150;SDS011;41041;43.162;20.538;2023-07-20T03:34:34;8.50;;;3.13;;
55150;SDS011;41041;43.162;20.538;2023-07-20T03:37:00;13.77;;;3.50;;
55150;SDS011;41041;43.162;20.538;2023-07-20T03:39:29;8.90;;;2.95;;
55150;SDS011;41041;43.162;20.538;2023-07-20T03:41:55;11.18;;;2.85;;
55150;SDS011;41041;43.162;20.538;2023-07-20T03:44:21;9.93;;;2.85;;
55150;SDS011;41041;43.162;20.538;2023-07-20T03:46:48;7.72;;;2.78;;
55150;SDS011;41041;43.162;20.538;2023-07-20T03:49:14;8.55;;;3.10;;
55150;SDS011;41041;43.162;20.538;2023-07-20T03:54:25;10.32;;;3.08;;
55150;SDS011;41041;43.162;20.538;2023-07-20T03:56:51;9.45;;;2.80;;
55150;SDS011;41041;43.162;20.538;2023-07-20T03:59:17;9.68;;;3.00;;
55150;SDS011;41041;43.162;20.538;2023-07-20T04:01:43;13.85;;;3.45;;
55150;SDS011;41041;43.162;20.538;2023-07-20T04:04:13;10.85;;;3.22;;
55150;SDS011;41041;43.162;20.538;2023-07-20T04:06:44;10.25;;;3.25;;
55150;SDS011;41041;43.162;20.538;2023-07-20T04:12:42;12.57;;;3.28;;
55150;SDS011;41041;43.162;20.538;2023-07-20T04:15:09;9.65;;;3.28;;
55150;SDS011;41041;43.162;20.538;2023-07-20T04:17:35;9.43;;;2.95;;
55150;SDS011;41041;43.162;20.538;2023-07-20T04:20:01;9.25;;;3.42;;
55150;SDS011;41041;43.162;20.538;2023-07-20T04:22:28;7.18;;;3.80;;
55150;SDS011;41041;43.162;20.538;2023-07-20T04:25:13;9.98;;;3.10;;
55150;SDS011;41041;43.162;20.538;2023-07-20T04:27:39;6.55;;;3.00;;
55150;SDS011;41041;43.162;20.538;2023-07-20T04:30:07;8.05;;;2.75;;
55150;SDS011;41041;43.162;20.538;2023-07-20T04:32:33;11.00;;;3.15;;
55150;SDS011;41041;43.162;20.538;2023-07-20T04:34:59;8.85;;;3.20;;
55150;SDS011;41041;43.162;20.538;2023-07-20T04:37:25;10.75;;;3.22;;
55150;SDS011;41041;43.162;20.538;2023-07-20T04:39:51;14.18;;;3.67;;
55150;SDS011;41041;43.162;20.538;2023-07-20T04:42:17;12.82;;;3.60;;
55150;SDS011;41041;43.162;20.538;2023-07-20T04:44:43;18.67;;;3.85;;
55150;SDS011;41041;43.162;20.538;2023-07-20T04:47:09;8.15;;;3.10;;
55150;SDS011;41041;43.162;20.538;2023-07-20T04:52:24;13.93;;;3.42;;
55150;SDS011;41041;43.162;20.538;2023-07-20T04:54:50;18.75;;;3.78;;
55150;SDS011;41041;43.162;20.538;2023-07-20T04:57:16;13.88;;;3.88;;
55150;SDS011;41041;43.162;20.538;2023-07-20T04:59:41;8.25;;;3.60;;
55150;SDS011;41041;43.162;20.538;2023-07-20T05:02:07;10.27;;;3.58;;
55150;SDS011;41041;43.162;20.538;2023-07-20T05:04:33;15.38;;;4.10;;
55150;SDS011;41041;43.162;20.538;2023-07-20T05:06:59;7.88;;;2.92;;
55150;SDS011;41041;43.162;20.538;2023-07-20T05:09:25;7.78;;;3.28;;
55150;SDS011;41041;43.162;20.538;2023-07-20T05:11:51;8.95;;;3.40;;
55150;SDS011;41041;43.162;20.538;2023-07-20T05:14:17;10.88;;;3.38;;
55150;SDS011;41041;43.162;20.538;2023-07-20T05:16:42;11.38;;;3.22;;
55150;SDS011;41041;43.162;20.538;2023-07-20T05:19:08;7.82;;;2.90;;
55150;SDS011;41041;43.162;20.538;2023-07-20T05:21:34;10.55;;;3.22;;
55150;SDS011;41041;43.162;20.538;2023-07-20T05:24:00;12.38;;;3.70;;
55150;SDS011;41041;43.162;20.538;2023-07-20T05:29:30;11.13;;;3.45;;
55150;SDS011;41041;43.162;20.538;2023-07-20T05:31:57;10.18;;;3.05;;
55150;SDS011;41041;43.162;20.538;2023-07-20T05:34:22;42.03;;;4.97;;
55150;SDS011;41041;43.162;20.538;2023-07-20T05:40:10;8.55;;;3.03;;
55150;SDS011;41041;43.162;20.538;2023-07-20T05:42:37;11.85;;;3.30;;
55150;SDS011;41041;43.162;20.538;2023-07-20T05:45:05;10.32;;;2.60;;
55150;SDS011;41041;43.162;20.538;2023-07-20T05:47:31;13.82;;;2.97;;
55150;SDS011;41041;43.162;20.538;2023-07-20T05:49:57;10.82;;;3.33;;
55150;SDS011;41041;43.162;20.538;2023-07-20T05:52:23;13.45;;;3.17;;
55150;SDS011;41041;43.162;20.538;2023-07-20T05:54:48;7.20;;;2.67;;
55150;SDS011;41041;43.162;20.538;2023-07-20T05:57:14;9.45;;;2.92;;
55150;SDS011;41041;43.162;20.538;2023-07-20T05:59:40;6.80;;;2.75;;
55150;SDS011;41041;43.162;20.538;2023-07-20T06:02:09;9.18;;;3.00;;
55150;SDS011;41041;43.162;20.538;2023-07-20T06:04:35;11.02;;;3.92;;
55150;SDS011;41041;43.162;20.538;2023-07-20T06:07:01;15.93;;;4.30;;
55150;SDS011;41041;43.162;20.538;2023-07-20T06:09:27;9.40;;;3.72;;
55150;SDS011;41041;43.162;20.538;2023-07-20T06:11:54;12.85;;;3.20;;
55150;SDS011;41041;43.162;20.538;2023-07-20T06:14:20;13.45;;;3.60;;
55150;SDS011;41041;43.162;20.538;2023-07-20T06:16:46;9.40;;;2.92;;
55150;SDS011;41041;43.162;20.538;2023-07-20T06:19:11;7.63;;;2.83;;
55150;SDS011;41041;43.162;20.538;2023-07-20T06:21:38;8.63;;;2.90;;
55150;SDS011;41041;43.162;20.538;2023-07-20T06:24:04;11.82;;;2.92;;
55150;SDS011;41041;43.162;20.538;2023-07-20T06:26:30;8.68;;;2.97;;
55150;SDS011;41041;43.162;20.538;2023-07-20T06:31:32;8.27;;;3.30;;
55150;SDS011;41041;43.162;20.538;2023-07-20T06:33:59;9.45;;;3.28;;
55150;SDS011;41041;43.162;20.538;2023-07-20T06:36:26;9.48;;;3.47;;
55150;SDS011;41041;43.162;20.538;2023-07-20T06:38:53;8.55;;;3.42;;
55150;SDS011;41041;43.162;20.538;2023-07-20T06:41:20;15.10;;;3.70;;
55150;SDS011;41041;43.162;20.538;2023-07-20T06:43:46;8.52;;;3.30;;
55150;SDS011;41041;43.162;20.538;2023-07-20T06:46:14;9.82;;;3.50;;
55150;SDS011;41041;43.162;20.538;2023-07-20T06:48:44;13.57;;;3.50;;
55150;SDS011;41041;43.162;20.538;2023-07-20T06:51:16;12.15;;;3.65;;
55150;SDS011;41041;43.162;20.538;2023-07-20T06:53:45;12.73;;;3.90;;
55150;SDS011;41041;43.162;20.538;2023-07-20T06:56:11;10.93;;;3.75;;
55150;SDS011;41041;43.162;20.538;2023-07-20T06:58:40;11.93;;;3.47;;
55150;SDS011;41041;43.162;20.538;2023-07-20T07:01:07;9.73;;;3.42;;
55150;SDS011;41041;43.162;20.538;2023-07-20T07:03:33;9.38;;;3.78;;
55150;SDS011;41041;43.162;20.538;2023-07-20T07:05:59;12.10;;;3.85;;
55150;SDS011;41041;43.162;20.538;2023-07-20T07:08:25;7.93;;;3.28;;
55150;SDS011;41041;43.162;20.538;2023-07-20T07:10:51;10.30;;;2.80;;
55150;SDS011;41041;43.162;20.538;2023-07-20T07:13:25;6.75;;;2.88;;
55150;SDS011;41041;43.162;20.538;2023-07-20T07:15:50;8.80;;;2.80;;
55150;SDS011;41041;43.162;20.538;2023-07-20T07:18:20;9.45;;;3.00;;
55150;SDS011;41041;43.162;20.538;2023-07-20T07:20:52;7.45;;;3.20;;
55150;SDS011;41041;43.162;20.538;2023-07-20T07:23:19;8.40;;;3.00;;
55150;SDS011;41041;43.162;20.538;2023-07-20T07:25:46;9.13;;;2.88;;
55150;SDS011;41041;43.162;20.538;2023-07-20T07:28:12;7.22;;;2.60;;
55150;SDS011;41041;43.162;20.538;2023-07-20T07:30:38;11.15;;;3.03;;
55150;SDS011;41041;43.162;20.538;2023-07-20T07:33:04;9.30;;;2.95;;
55150;SDS011;41041;43.162;20.538;2023-07-20T07:35:30;14.60;;;2.92;;
55150;SDS011;41041;43.162;20.538;2023-07-20T07:37:56;14.80;;;2.70;;
55150;SDS011;41041;43.162;20.538;2023-07-20T07:40:22;8.15;;;2.60;;
55150;SDS011;41041;43.162;20.538;2023-07-20T07:42:49;7.78;;;2.95;;
55150;SDS011;41041;43.162;20.538;2023-07-20T07:45:15;7.82;;;2.75;;
55150;SDS011;41041;43.162;20.538;2023-07-20T07:47:41;9.57;;;2.67;;
55150;SDS011;41041;43.162;20.538;2023-07-20T07:50:08;7.97;;;2.80;;
55150;SDS011;41041;43.162;20.538;2023-07-20T07:52:35;11.57;;;2.75;;
55150;SDS011;41041;43.162;20.538;2023-07-20T07:55:01;9.90;;;2.60;;
55150;SDS011;41041;43.162;20.538;2023-07-20T07:57:29;10.45;;;3.15;;
55150;SDS011;41041;43.162;20.538;2023-07-20T08:00:00;11.70;;;2.90;;
55150;SDS011;41041;43.162;20.538;2023-07-20T08:02:26;10.35;;;3.17;;
55150;SDS011;41041;43.162;20.538;2023-07-20T08:04:53;7.10;;;2.60;;
55150;SDS011;41041;43.162;20.538;2023-07-20T08:07:20;11.48;;;3.05;;
55150;SDS011;41041;43.162;20.538;2023-07-20T08:09:46;8.38;;;3.20;;
55150;SDS011;41041;43.162;20.538;2023-07-20T08:12:12;11.18;;;3.05;;
55150;SDS011;41041;43.162;20.538;2023-07-20T08:14:38;9.65;;;3.17;;
55150;SDS011;41041;43.162;20.538;2023-07-20T08:17:04;9.00;;;2.88;;
55150;SDS011;41041;43.162;20.538;2023-07-20T08:19:31;8.07;;;2.92;;
55150;SDS011;41041;43.162;20.538;2023-07-20T08:21:57;8.48;;;2.90;;
55150;SDS011;41041;43.162;20.538;2023-07-20T08:24:23;10.68;;;3.15;;
55150;SDS011;41041;43.162;20.538;2023-07-20T08:26:49;9.25;;;2.92;;
55150;SDS011;41041;43.162;20.538;2023-07-20T08:29:31;12.20;;;3.22;;
55150;SDS011;41041;43.162;20.538;2023-07-20T08:31:57;10.93;;;2.67;;
55150;SDS011;41041;43.162;20.538;2023-07-20T08:34:23;9.38;;;2.45;;
55150;SDS011;41041;43.162;20.538;2023-07-20T08:36:49;9.50;;;2.33;;
55150;SDS011;41041;43.162;20.538;2023-07-20T08:39:15;5.22;;;2.20;;
55150;SDS011;41041;43.162;20.538;2023-07-20T08:41:42;7.68;;;2.10;;
55150;SDS011;41041;43.162;20.538;2023-07-20T08:44:09;10.60;;;2.70;;
55150;SDS011;41041;43.162;20.538;2023-07-20T08:46:35;11.48;;;2.58;;
55150;SDS011;41041;43.162;20.538;2023-07-20T08:49:03;10.57;;;2.90;;
55150;SDS011;41041;43.162;20.538;2023-07-20T08:51:30;12.48;;;2.40;;
55150;SDS011;41041;43.162;20.538;2023-07-20T08:53:56;10.02;;;2.60;;
55150;SDS011;41041;43.162;20.538;2023-07-20T08:56:23;6.97;;;2.70;;
55150;SDS011;41041;43.162;20.538;2023-07-20T08:58:51;6.53;;;2.58;;
55150;SDS011;41041;43.162;20.538;2023-07-20T09:01:18;6.65;;;2.80;;
55150;SDS011;41041;43.162;20.538;2023-07-20T09:03:45;10.82;;;2.88;;
55150;SDS011;41041;43.162;20.538;2023-07-20T09:06:18;5.82;;;2.30;;
55150;SDS011;41041;43.162;20.538;2023-07-20T09:08:44;10.05;;;2.47;;
55150;SDS011;41041;43.162;20.538;2023-07-20T09:11:10;11.57;;;2.50;;
55150;SDS011;41041;43.162;20.538;2023-07-20T09:13:38;6.78;;;2.47;;
55150;SDS011;41041;43.162;20.538;2023-07-20T09:16:04;7.38;;;2.35;;
55150;SDS011;41041;43.162;20.538;2023-07-20T09:18:31;7.03;;;2.35;;
55150;SDS011;41041;43.162;20.538;2023-07-20T09:21:01;7.05;;;2.30;;
55150;SDS011;41041;43.162;20.538;2023-07-20T09:23:31;8.63;;;2.65;;
55150;SDS011;41041;43.162;20.538;2023-07-20T09:25:58;7.97;;;2.45;;
55150;SDS011;41041;43.162;20.538;2023-07-20T09:28:24;6.22;;;2.40;;
55150;SDS011;41041;43.162;20.538;2023-07-20T09:30:50;6.80;;;2.40;;
55150;SDS011;41041;43.162;20.538;2023-07-20T09:33:24;8.68;;;2.53;;
55150;SDS011;41041;43.162;20.538;2023-07-20T09:35:50;6.18;;;2.50;;
55150;SDS011;41041;43.162;20.538;2023-07-20T09:38:16;8.45;;;2.83;;
55150;SDS011;41041;43.162;20.538;2023-07-20T09:40:42;8.55;;;2.40;;
55150;SDS011;41041;43.162;20.538;2023-07-20T09:43:09;6.03;;;2.15;;
55150;SDS011;41041;43.162;20.538;2023-07-20T09:45:42;8.50;;;2.40;;
55150;SDS011;41041;43.162;20.538;2023-07-20T09:48:09;8.93;;;2.40;;
55150;SDS011;41041;43.162;20.538;2023-07-20T09:50:41;5.97;;;2.20;;
55150;SDS011;41041;43.162;20.538;2023-07-20T09:53:09;4.80;;;2.20;;
55150;SDS011;41041;43.162;20.538;2023-07-20T09:55:38;7.05;;;2.20;;
55150;SDS011;41041;43.162;20.538;2023-07-20T09:58:05;6.97;;;2.30;;
55150;SDS011;41041;43.162;20.538;2023-07-20T10:00:34;8.70;;;2.10;;
55150;SDS011;41041;43.162;20.538;2023-07-20T10:03:02;8.98;;;2.40;;
55150;SDS011;41041;43.162;20.538;2023-07-20T10:05:29;7.95;;;2.45;;
55150;SDS011;41041;43.162;20.538;2023-07-20T10:07:57;6.55;;;2.25;;
55150;SDS011;41041;43.162;20.538;2023-07-20T10:10:24;6.35;;;2.30;;
55150;SDS011;41041;43.162;20.538;2023-07-20T10:12:50;8.70;;;2.35;;
55150;SDS011;41041;43.162;20.538;2023-07-20T10:15:24;5.70;;;2.25;;
55150;SDS011;41041;43.162;20.538;2023-07-20T10:17:57;7.25;;;1.90;;
55150;SDS011;41041;43.162;20.538;2023-07-20T10:20:25;9.93;;;2.30;;
55150;SDS011;41041;43.162;20.538;2023-07-20T10:22:53;7.60;;;2.30;;
55150;SDS011;41041;43.162;20.538;2023-07-20T10:25:20;8.70;;;2.40;;
55150;SDS011;41041;43.162;20.538;2023-07-20T10:27:46;5.72;;;1.92;;
55150;SDS011;41041;43.162;20.538;2023-07-20T10:30:13;9.27;;;2.55;;
55150;SDS011;41041;43.162;20.538;2023-07-20T10:32:40;6.53;;;1.95;;
55150;SDS011;41041;43.162;20.538;2023-07-20T10:35:13;6.40;;;1.92;;
55150;SDS011;41041;43.162;20.538;2023-07-20T10:37:52;5.88;;;2.30;;
55150;SDS011;41041;43.162;20.538;2023-07-20T10:40:38;7.15;;;1.85;;
55150;SDS011;41041;43.162;20.538;2023-07-20T10:43:05;8.43;;;2.15;;
55150;SDS011;41041;43.162;20.538;2023-07-20T10:46:15;6.47;;;2.17;;
55150;SDS011;41041;43.162;20.538;2023-07-20T10:48:23;6.78;;;2.25;;
55150;SDS011;41041;43.162;20.538;2023-07-20T10:51:10;5.80;;;1.90;;
55150;SDS011;41041;43.162;20.538;2023-07-20T10:53:38;7.53;;;2.05;;
55150;SDS011;41041;43.162;20.538;2023-07-20T10:56:14;6.53;;;2.53;;
55150;SDS011;41041;43.162;20.538;2023-07-20T10:58:40;9.18;;;2.50;;
55150;SDS011;41041;43.162;20.538;2023-07-20T11:01:13;7.57;;;2.40;;
55150;SDS011;41041;43.162;20.538;2023-07-20T11:03:41;5.00;;;2.00;;
55150;SDS011;41041;43.162;20.538;2023-07-20T11:11:41;5.57;;;2.03;;
55150;SDS011;41041;43.162;20.538;2023-07-20T11:14:21;7.15;;;2.28;;
55150;SDS011;41041;43.162;20.538;2023-07-20T11:16:49;9.23;;;2.22;;
55150;SDS011;41041;43.162;20.538;2023-07-20T11:19:20;5.38;;;2.22;;
55150;SDS011;41041;43.162;20.538;2023-07-20T11:21:53;3.78;;;1.95;;
55150;SDS011;41041;43.162;20.538;2023-07-20T11:24:20;5.88;;;2.08;;
55150;SDS011;41041;43.162;20.538;2023-07-20T11:26:47;6.00;;;2.20;;
55150;SDS011;41041;43.162;20.538;2023-07-20T11:29:18;6.75;;;1.92;;
55150;SDS011;41041;43.162;20.538;2023-07-20T11:31:48;5.75;;;2.22;;
55150;SDS011;41041;43.162;20.538;2023-07-20T11:34:18;6.55;;;2.30;;
55150;SDS011;41041;43.162;20.538;2023-07-20T11:36:45;5.57;;;2.10;;
55150;SDS011;41041;43.162;20.538;2023-07-20T11:39:15;6.03;;;2.03;;
55150;SDS011;41041;43.162;20.538;2023-07-20T11:41:49;9.18;;;2.25;;
55150;SDS011;41041;43.162;20.538;2023-07-20T11:46:43;7.28;;;2.03;;
55150;SDS011;41041;43.162;20.538;2023-07-20T11:49:10;5.05;;;2.10;;
55150;SDS011;41041;43.162;20.538;2023-07-20T11:51:36;12.93;;;2.53;;
55150;SDS011;41041;43.162;20.538;2023-07-20T11:54:06;6.72;;;2.17;;
55150;SDS011;41041;43.162;20.538;2023-07-20T11:56:33;10.18;;;2.30;;
55150;SDS011;41041;43.162;20.538;2023-07-20T11:58:59;7.35;;;1.85;;
55150;SDS011;41041;43.162;20.538;2023-07-20T12:01:29;7.80;;;2.47;;
55150;SDS011;41041;43.162;20.538;2023-07-20T12:04:03;4.97;;;1.85;;
55150;SDS011;41041;43.162;20.538;2023-07-20T12:06:29;5.88;;;2.10;;
55150;SDS011;41041;43.162;20.538;2023-07-20T12:09:02;8.90;;;2.28;;
55150;SDS011;41041;43.162;20.538;2023-07-20T12:11:31;12.60;;;2.35;;
55150;SDS011;41041;43.162;20.538;2023-07-20T12:14:08;4.18;;;1.90;;
55150;SDS011;41041;43.162;20.538;2023-07-20T12:16:35;6.43;;;2.10;;
55150;SDS011;41041;43.162;20.538;2023-07-20T12:19:10;8.10;;;2.28;;
55150;SDS011;41041;43.162;20.538;2023-07-20T12:21:39;8.27;;;2.13;;
55150;SDS011;41041;43.162;20.538;2023-07-20T12:24:07;8.18;;;2.13;;
55150;SDS011;41041;43.162;20.538;2023-07-20T12:29:10;8.00;;;2.20;;
55150;SDS011;41041;43.162;20.538;2023-07-20T12:31:39;6.45;;;2.00;;
55150;SDS011;41041;43.162;20.538;2023-07-20T12:34:08;6.43;;;2.20;;
55150;SDS011;41041;43.162;20.538;2023-07-20T12:36:34;10.50;;;2.03;;
55150;SDS011;41041;43.162;20.538;2023-07-20T12:39:01;6.18;;;1.98;;
55150;SDS011;41041;43.162;20.538;2023-07-20T12:41:30;7.43;;;2.20;;
55150;SDS011;41041;43.162;20.538;2023-07-20T12:43:56;5.82;;;2.10;;
55150;SDS011;41041;43.162;20.538;2023-07-20T12:46:23;5.75;;;2.00;;
55150;SDS011;41041;43.162;20.538;2023-07-20T12:48:50;5.18;;;1.70;;
55150;SDS011;41041;43.162;20.538;2023-07-20T12:51:16;5.00;;;1.90;;
55150;SDS011;41041;43.162;20.538;2023-07-20T12:56:27;8.88;;;2.00;;
55150;SDS011;41041;43.162;20.538;2023-07-20T12:58:53;7.22;;;1.75;;
55150;SDS011;41041;43.162;20.538;2023-07-20T13:01:19;7.60;;;2.10;;
55150;SDS011;41041;43.162;20.538;2023-07-20T13:03:45;6.43;;;2.08;;
55150;SDS011;41041;43.162;20.538;2023-07-20T13:06:16;6.43;;;2.30;;
55150;SDS011;41041;43.162;20.538;2023-07-20T13:11:46;7.97;;;2.17;;
55150;SDS011;41041;43.162;20.538;2023-07-20T13:14:13;7.30;;;1.88;;
55150;SDS011;41041;43.162;20.538;2023-07-20T13:16:39;5.35;;;1.80;;
55150;SDS011;41041;43.162;20.538;2023-07-20T13:19:06;7.35;;;2.10;;
55150;SDS011;41041;43.162;20.538;2023-07-20T13:21:32;5.25;;;1.85;;
55150;SDS011;41041;43.162;20.538;2023-07-20T13:23:58;3.58;;;1.70;;
55150;SDS011;41041;43.162;20.538;2023-07-20T13:26:24;5.55;;;1.77;;
55150;SDS011;41041;43.162;20.538;2023-07-20T13:28:52;6.97;;;1.88;;
55150;SDS011;41041;43.162;20.538;2023-07-20T13:31:19;8.25;;;2.20;;
55150;SDS011;41041;43.162;20.538;2023-07-20T13:33:50;6.05;;;1.95;;
55150;SDS011;41041;43.162;20.538;2023-07-20T13:36:25;8.23;;;2.20;;
55150;SDS011;41041;43.162;20.538;2023-07-20T13:38:51;8.50;;;2.10;;
55150;SDS011;41041;43.162;20.538;2023-07-20T13:41:17;9.40;;;2.05;;
55150;SDS011;41041;43.162;20.538;2023-07-20T13:43:44;7.93;;;2.00;;
55150;SDS011;41041;43.162;20.538;2023-07-20T13:46:12;7.50;;;2.25;;
55150;SDS011;41041;43.162;20.538;2023-07-20T13:48:38;4.30;;;2.17;;
55150;SDS011;41041;43.162;20.538;2023-07-20T13:53:36;14.38;;;2.13;;
55150;SDS011;41041;43.162;20.538;2023-07-20T13:56:02;8.88;;;2.53;;
55150;SDS011;41041;43.162;20.538;2023-07-20T13:58:29;8.43;;;2.30;;
55150;SDS011;41041;43.162;20.538;2023-07-20T14:00:55;6.47;;;2.20;;
55150;SDS011;41041;43.162;20.538;2023-07-20T14:03:21;8.68;;;2.22;;
55150;SDS011;41041;43.162;20.538;2023-07-20T14:05:46;6.28;;;2.33;;
55150;SDS011;41041;43.162;20.538;2023-07-20T14:08:14;6.70;;;2.20;;
55150;SDS011;41041;43.162;20.538;2023-07-20T14:10:39;6.20;;;2.10;;
55150;SDS011;41041;43.162;20.538;2023-07-20T14:13:06;6.80;;;2.22;;
55150;SDS011;41041;43.162;20.538;2023-07-20T14:15:33;6.13;;;2.05;;
55150;SDS011;41041;43.162;20.538;2023-07-20T14:17:59;3.65;;;1.85;;
55150;SDS011;41041;43.162;20.538;2023-07-20T14:20:25;8.05;;;2.03;;
55150;SDS011;41041;43.162;20.538;2023-07-20T14:23:05;7.47;;;2.10;;
55150;SDS011;41041;43.162;20.538;2023-07-20T14:25:30;7.30;;;2.17;;
55150;SDS011;41041;43.162;20.538;2023-07-20T14:28:01;9.48;;;2.30;;
55150;SDS011;41041;43.162;20.538;2023-07-20T14:30:27;8.00;;;1.98;;
55150;SDS011;41041;43.162;20.538;2023-07-20T14:32:53;5.45;;;1.80;;
55150;SDS011;41041;43.162;20.538;2023-07-20T14:35:19;8.18;;;2.00;;
55150;SDS011;41041;43.162;20.538;2023-07-20T14:37:45;4.90;;;1.90;;
55150;SDS011;41041;43.162;20.538;2023-07-20T14:40:12;5.78;;;1.95;;
55150;SDS011;41041;43.162;20.538;2023-07-20T14:42:38;6.13;;;2.20;;
55150;SDS011;41041;43.162;20.538;2023-07-20T14:47:43;8.70;;;2.00;;
55150;SDS011;41041;43.162;20.538;2023-07-20T14:50:10;8.10;;;1.90;;
55150;SDS011;41041;43.162;20.538;2023-07-20T14:52:36;7.03;;;2.33;;
55150;SDS011;41041;43.162;20.538;2023-07-20T14:55:02;9.13;;;1.90;;
55150;SDS011;41041;43.162;20.538;2023-07-20T14:57:29;7.32;;;2.05;;
55150;SDS011;41041;43.162;20.538;2023-07-20T14:59:55;4.95;;;2.00;;
55150;SDS011;41041;43.162;20.538;2023-07-20T15:02:21;5.60;;;2.10;;
55150;SDS011;41041;43.162;20.538;2023-07-20T15:04:50;4.82;;;2.05;;
55150;SDS011;41041;43.162;20.538;2023-07-20T15:07:32;8.55;;;2.08;;
55150;SDS011;41041;43.162;20.538;2023-07-20T15:10:05;7.15;;;1.73;;
55150;SDS011;41041;43.162;20.538;2023-07-20T15:12:32;6.55;;;1.85;;
55150;SDS011;41041;43.162;20.538;2023-07-20T15:15:07;8.85;;;2.20;;
55150;SDS011;41041;43.162;20.538;2023-07-20T15:17:37;5.10;;;2.10;;
55150;SDS011;41041;43.162;20.538;2023-07-20T15:20:05;5.03;;;1.80;;
55150;SDS011;41041;43.162;20.538;2023-07-20T15:22:36;5.25;;;1.70;;
55150;SDS011;41041;43.162;20.538;2023-07-20T15:25:03;7.78;;;2.00;;
55150;SDS011;41041;43.162;20.538;2023-07-20T15:27:29;7.38;;;1.88;;
55150;SDS011;41041;43.162;20.538;2023-07-20T15:29:56;5.70;;;1.65;;
55150;SDS011;41041;43.162;20.538;2023-07-20T15:32:22;4.15;;;1.85;;
55150;SDS011;41041;43.162;20.538;2023-07-20T15:34:48;4.82;;;1.95;;
55150;SDS011;41041;43.162;20.538;2023-07-20T15:37:13;7.78;;;2.17;;
55150;SDS011;41041;43.162;20.538;2023-07-20T15:39:39;8.10;;;1.90;;
55150;SDS011;41041;43.162;20.538;2023-07-20T15:42:22;5.18;;;1.90;;
55150;SDS011;41041;43.162;20.538;2023-07-20T15:44:48;5.45;;;1.92;;
55150;SDS011;41041;43.162;20.538;2023-07-20T15:49:45;9.35;;;2.35;;
55150;SDS011;41041;43.162;20.538;2023-07-20T15:52:10;5.93;;;1.88;;
55150;SDS011;41041;43.162;20.538;2023-07-20T15:54:38;8.77;;;2.13;;
55150;SDS011;41041;43.162;20.538;2023-07-20T15:57:05;38.17;;;3.10;;
55150;SDS011;41041;43.162;20.538;2023-07-20T15:59:31;4.82;;;1.90;;
55150;SDS011;41041;43.162;20.538;2023-07-20T16:02:08;6.45;;;1.83;;
55150;SDS011;41041;43.162;20.538;2023-07-20T16:04:34;5.63;;;1.73;;
55150;SDS011;41041;43.162;20.538;2023-07-20T16:07:00;5.63;;;1.92;;
55150;SDS011;41041;43.162;20.538;2023-07-20T16:09:26;5.65;;;2.13;;
55150;SDS011;41041;43.162;20.538;2023-07-20T16:11:52;7.03;;;1.95;;
55150;SDS011;41041;43.162;20.538;2023-07-20T16:14:18;4.63;;;1.90;;
55150;SDS011;41041;43.162;20.538;2023-07-20T16:16:44;5.60;;;2.05;;
55150;SDS011;41041;43.162;20.538;2023-07-20T16:19:10;7.15;;;2.10;;
55150;SDS011;41041;43.162;20.538;2023-07-20T16:21:35;6.15;;;2.00;;
55150;SDS011;41041;43.162;20.538;2023-07-20T16:24:01;5.13;;;2.13;;
55150;SDS011;41041;43.162;20.538;2023-07-20T16:26:27;5.10;;;1.90;;